createdAt,value
2023-05-12T05:01:32.735Z,19.35
2023-05-12T05:04:19.096Z,21.05
2023-05-12T05:07:06.700Z,20.52
2023-05-12T05:09:53.699Z,20.15
2023-05-12T05:12:40.267Z,19.88
2023-05-12T06:04:35.728Z,24.35
2023-05-12T06:07:22.313Z,25.25
2023-05-12T06:10:09.553Z,25.08
2023-05-12T06:12:55.610Z,23.70
2023-05-12T06:15:42.032Z,22.60
2023-05-12T06:18:28.241Z,24.75
2023-05-12T06:21:15.669Z,23.73
2023-05-12T06:24:02.339Z,22.35
2023-05-12T06:26:48.417Z,23.02
2023-05-12T06:29:34.906Z,23.60
2023-05-12T06:32:21.461Z,23.65
2023-05-12T06:35:08.189Z,23.33
2023-05-12T06:37:55.818Z,23.83
2023-05-12T06:40:42.100Z,23.30
2023-05-12T06:43:28.762Z,23.10
2023-05-12T06:56:50.689Z,23.45
2023-05-12T07:07:50.241Z,21.10
2023-05-12T07:29:59.135Z,20.58
2023-05-12T07:33:15.748Z,20.17
2023-05-12T07:37:16.213Z,20.20
2023-05-12T08:08:20.486Z,18.95
2023-05-12T08:22:19.498Z,16.13
2023-05-12T08:26:35.747Z,15.20
2023-05-12T08:30:49.080Z,13.38
2023-05-12T08:34:45.359Z,13.20
2023-05-12T08:42:44.899Z,13.65
2023-05-12T08:45:31.287Z,12.13
2023-05-12T08:48:20.324Z,12.57
2023-05-12T08:51:09.991Z,11.82
2023-05-12T08:53:56.948Z,13.18
2023-05-12T08:57:29.437Z,12.02
2023-05-12T09:11:13.994Z,8.23
2023-05-12T09:38:21.847Z,6.60
2023-05-12T09:54:31.332Z,7.00
2023-05-12T09:57:27.278Z,7.78
2023-05-12T10:00:30.332Z,7.05
2023-05-12T10:03:26.152Z,5.80
2023-05-12T10:06:16.481Z,4.75
2023-05-12T10:11:56.463Z,5.22
2023-05-12T10:14:51.629Z,3.75
2023-05-12T13:05:16.276Z,2.88
2023-05-12T13:08:03.322Z,2.88
2023-05-12T13:10:49.529Z,3.28
2023-05-12T13:13:36.852Z,3.55
2023-05-12T13:16:23.649Z,2.80
2023-05-12T13:19:11.384Z,2.85
2023-05-12T13:21:59.118Z,3.38
2023-05-12T13:24:45.749Z,3.30
2023-05-12T13:27:31.868Z,2.85
2023-05-12T13:30:18.633Z,2.63
2023-05-12T13:33:06.152Z,3.10
2023-05-12T13:35:52.553Z,3.55
2023-05-12T13:38:40.790Z,3.10
2023-05-12T13:41:27.509Z,2.72
2023-05-12T13:44:14.063Z,2.50
2023-05-12T13:47:00.710Z,3.28
2023-05-12T13:49:46.910Z,3.17
2023-05-12T13:52:32.987Z,3.13
2023-05-12T13:55:21.752Z,3.35
2023-05-12T13:58:08.155Z,3.10
2023-05-12T14:00:54.520Z,2.95
2023-05-12T14:03:42.027Z,3.78
2023-05-12T14:06:28.409Z,3.60
2023-05-12T14:09:14.791Z,4.05
2023-05-12T14:12:02.431Z,3.30
2023-05-12T14:14:50.068Z,3.08
2023-05-12T14:17:36.635Z,2.60
2023-05-12T14:20:23.008Z,3.40
2023-05-12T14:23:09.114Z,3.78
2023-05-12T14:26:07.564Z,3.30
2023-05-12T14:28:55.828Z,3.50
2023-05-12T14:31:42.548Z,3.85
2023-05-12T14:34:28.536Z,3.30
2023-05-12T14:37:14.993Z,3.35
2023-05-12T14:40:01.643Z,2.97
2023-05-12T14:42:48.337Z,3.80
2023-05-12T14:46:25.902Z,3.47
2023-05-12T14:49:15.925Z,3.08
2023-05-12T14:54:50.716Z,3.15
2023-05-12T14:57:37.721Z,5.05
2023-05-12T15:04:49.407Z,3.80
2023-05-12T15:08:25.691Z,3.33
2023-05-12T15:11:12.208Z,4.07
2023-05-12T15:13:58.318Z,3.78
2023-05-12T15:16:44.805Z,4.30
2023-05-12T15:19:32.434Z,4.50
2023-05-12T15:22:18.697Z,4.75
2023-05-12T15:25:09.053Z,3.92
2023-05-12T15:27:55.580Z,3.50
2023-05-12T15:30:42.166Z,3.58
2023-05-12T15:33:30.386Z,3.38
2023-05-12T15:36:21.005Z,3.42
2023-05-12T15:39:07.411Z,3.20
2023-05-12T15:41:57.496Z,3.80
2023-05-12T15:44:46.582Z,5.70
2023-05-12T15:47:34.050Z,5.13
2023-05-12T15:50:22.587Z,12.70
2023-05-12T15:54:27.009Z,4.72
2023-05-12T15:57:39.307Z,3.45
2023-05-12T16:00:25.796Z,3.22
2023-05-12T16:03:15.057Z,3.53
2023-05-12T16:06:04.760Z,3.72
2023-05-12T16:08:52.374Z,3.88
2023-05-12T16:11:39.560Z,3.30
2023-05-12T16:14:27.148Z,3.30
2023-05-12T16:17:14.094Z,3.00
2023-05-12T16:20:01.915Z,3.25
2023-05-12T16:22:48.201Z,3.80
2023-05-12T16:25:34.791Z,6.47
2023-05-12T16:28:21.681Z,6.25
2023-05-12T16:31:09.671Z,5.32
2023-05-12T16:33:55.762Z,5.65
2023-05-12T16:36:41.958Z,5.15
2023-05-12T16:39:35.943Z,5.38
2023-05-12T16:42:22.580Z,5.63
2023-05-12T16:45:10.874Z,4.85
2023-05-12T16:47:58.517Z,5.55
2023-05-12T16:50:45.087Z,5.28
2023-05-12T16:53:31.931Z,5.07
2023-05-12T17:01:47.893Z,5.60
2023-05-12T17:04:35.912Z,5.90
2023-05-12T17:07:23.189Z,5.78
2023-05-12T17:10:10.008Z,5.25
2023-05-12T17:12:56.517Z,5.55
2023-05-12T17:15:42.777Z,6.05
2023-05-12T17:18:29.220Z,5.57
2023-05-12T17:21:17.342Z,12.98
2023-05-12T17:24:03.845Z,8.10
2023-05-12T17:26:50.515Z,5.68
2023-05-12T17:29:37.112Z,5.43
2023-05-12T17:32:23.686Z,5.95
2023-05-12T17:35:11.390Z,5.63
2023-05-12T17:37:58.900Z,5.15
2023-05-12T17:40:45.070Z,6.07
2023-05-12T17:43:31.546Z,5.50
2023-05-12T17:46:18.058Z,14.55
2023-05-12T17:49:04.450Z,24.88
2023-05-12T17:51:51.294Z,18.40
2023-05-12T17:54:39.297Z,6.70
2023-05-12T17:57:25.756Z,6.45
2023-05-12T18:00:15.610Z,17.58
2023-05-12T18:03:02.137Z,9.85
2023-05-12T18:05:48.897Z,6.55
2023-05-12T18:08:35.779Z,5.05
2023-05-12T18:11:23.433Z,7.45
2023-05-12T18:14:09.885Z,7.22
2023-05-12T18:16:58.440Z,6.32
2023-05-12T18:19:45.075Z,6.45
2023-05-12T18:22:31.606Z,6.30
2023-05-12T18:25:18.193Z,5.63
2023-05-12T18:28:08.507Z,5.88
2023-05-12T18:30:58.064Z,6.35
2023-05-12T18:33:48.025Z,7.50
2023-05-12T18:36:35.297Z,6.85
2023-05-12T18:39:22.362Z,7.50
2023-05-12T18:42:10.363Z,6.50
2023-05-12T18:44:58.495Z,7.22
2023-05-12T18:47:45.303Z,7.22
2023-05-12T18:50:31.855Z,7.28
2023-05-12T18:53:18.047Z,7.07
2023-05-12T18:56:04.529Z,7.60
2023-05-12T18:58:51.247Z,8.02
2023-05-12T19:05:54.603Z,9.40
2023-05-12T19:08:42.140Z,8.82
2023-05-12T19:11:28.807Z,9.20
2023-05-12T19:14:17.840Z,8.63
2023-05-12T19:17:04.280Z,9.43
2023-05-12T19:19:50.577Z,8.75
2023-05-12T19:22:36.978Z,9.30
2023-05-12T19:25:24.927Z,8.68
2023-05-12T19:28:11.872Z,9.57
2023-05-12T19:30:58.370Z,9.02
2023-05-12T19:33:44.775Z,10.07
2023-05-12T19:36:31.609Z,9.13
2023-05-12T19:39:19.127Z,8.27
2023-05-12T19:42:07.269Z,10.55
2023-05-12T19:44:53.794Z,10.68
2023-05-12T19:47:40.839Z,10.13
2023-05-12T19:50:30.113Z,11.48
2023-05-12T19:53:16.904Z,10.85
2023-05-12T19:56:03.628Z,8.82
2023-05-12T19:58:52.401Z,9.18
2023-05-12T20:24:32.253Z,9.13
2023-05-12T20:27:18.409Z,13.60
2023-05-12T20:30:05.779Z,13.27
2023-05-12T20:32:52.749Z,9.55
2023-05-12T20:35:39.178Z,10.63
2023-05-12T20:38:25.419Z,10.15
2023-05-12T20:41:13.669Z,10.77
2023-05-12T20:44:00.607Z,11.68
2023-05-12T20:46:48.068Z,10.65
2023-05-12T20:49:34.722Z,12.18
2023-05-12T20:52:22.197Z,12.00
2023-05-12T20:55:09.603Z,11.57
2023-05-12T20:57:57.880Z,12.00
2023-05-12T21:00:45.069Z,12.93
2023-05-12T21:03:32.502Z,12.13
2023-05-12T21:06:18.821Z,11.45
2023-05-12T21:09:05.768Z,11.00
2023-05-12T21:11:51.989Z,12.85
2023-05-12T21:14:40.497Z,11.88
2023-05-12T21:17:27.716Z,11.63
2023-05-12T21:20:14.045Z,11.65
2023-05-12T21:23:00.309Z,11.43
2023-05-12T21:25:46.581Z,11.18
2023-05-12T21:28:32.765Z,10.38
2023-05-12T21:31:20.316Z,10.70
2023-05-12T21:34:07.155Z,10.60
2023-05-12T21:36:54.560Z,9.95
2023-05-12T21:39:41.121Z,10.60
2023-05-12T21:42:27.490Z,10.10
2023-05-12T21:45:13.947Z,9.73
2023-05-12T21:48:01.531Z,9.27
2023-05-12T21:50:58.113Z,10.30
2023-05-12T21:53:44.385Z,9.55
2023-05-12T21:56:30.780Z,8.77
2023-05-12T21:59:17.084Z,9.70
2023-05-12T22:02:03.924Z,8.77
2023-05-12T22:04:51.617Z,10.57
2023-05-12T22:07:37.901Z,9.18
2023-05-12T22:10:24.080Z,9.07
2023-05-12T22:13:10.654Z,9.27
